Time;durP1;ratioP1;P1;durP2;ratioP2;P2;SDS_P1;SDS_P2;PMS_P1;PMS_P2;Temp;Humidity;BMP_temperature;BMP_pressure;BME280_temperature;BME280_humidity;BME280_pressure;Samples;Min_cycle;Max_cycle;Signal;HPM_P1;HPM_P2
2023/09/22 00:00:44;;;;;;;13.32;11.90;;;;;;;12.28;100.00;99786.53;5030366;28;20411;-83
2023/09/22 00:03:10;;;;;;;12.52;10.98;;;;;;;12.24;100.00;99785.19;5027000;28;20106;-81
2023/09/22 00:05:36;;;;;;;12.60;10.25;;;;;;;12.24;100.00;99790.47;5030382;28;20021;-81
2023/09/22 00:08:03;;;;;;;12.15;10.85;;;;;;;12.21;100.00;99788.13;5026938;28;20095;-81
2023/09/22 00:10:29;;;;;;;12.98;11.20;;;;;;;12.17;100.00;99784.13;5010560;28;20501;-81
2023/09/22 00:12:54;;;;;;;13.63;10.93;;;;;;;12.18;100.00;99781.34;5030299;28;20168;-77
2023/09/22 00:15:24;;;;;;;13.55;10.65;;;;;;;12.13;100.00;99785.41;5029670;28;20025;-77
2023/09/22 00:17:49;;;;;;;13.50;10.73;;;;;;;12.10;100.00;99783.06;5029755;28;20029;-81
2023/09/22 00:20:15;;;;;;;14.52;10.60;;;;;;;12.04;100.00;99784.50;5029839;28;20155;-82
2023/09/22 00:22:44;;;;;;;14.07;10.55;;;;;;;12.03;100.00;99776.75;5030068;28;20028;-81
2023/09/22 00:25:10;;;;;;;13.48;9.70;;;;;;;12.00;100.00;99782.28;5028757;28;20033;-82
2023/09/22 00:27:37;;;;;;;12.52;9.95;;;;;;;11.97;100.00;99788.69;5028300;28;20033;-81
2023/09/22 00:30:04;;;;;;;12.93;10.10;;;;;;;11.97;100.00;99801.03;5029577;28;20025;-82
2023/09/22 00:32:29;;;;;;;13.55;9.85;;;;;;;11.91;100.00;99794.56;5028380;28;20041;-77
2023/09/22 00:34:55;;;;;;;12.25;9.73;;;;;;;11.87;100.00;99795.81;5030023;28;20021;-82
2023/09/22 00:37:21;;;;;;;12.80;11.35;;;;;;;11.83;100.00;99797.94;5028640;28;20068;-77
2023/09/22 00:39:46;;;;;;;13.70;10.30;;;;;;;11.83;100.00;99802.38;5023294;28;20112;-82
2023/09/22 00:42:12;;;;;;;13.52;11.43;;;;;;;11.83;100.00;99795.28;5009829;28;20185;-81
2023/09/22 00:44:38;;;;;;;14.43;11.38;;;;;;;11.83;100.00;99791.84;5026142;28;20424;-81
2023/09/22 00:47:11;;;;;;;15.70;11.77;;;;;;;11.78;100.00;99794.91;5027818;28;20036;-77
2023/09/22 00:49:38;;;;;;;14.10;11.45;;;;;;;11.79;100.00;99788.66;5029146;28;20522;-81
2023/09/22 00:52:03;;;;;;;16.38;11.70;;;;;;;11.74;100.00;99782.16;5028570;28;20029;-77
2023/09/22 00:54:30;;;;;;;16.55;12.05;;;;;;;11.69;100.00;99774.69;5029586;28;20025;-82
2023/09/22 00:56:55;;;;;;;17.73;12.57;;;;;;;11.71;100.00;99762.19;5026208;28;20122;-77
2023/09/22 00:59:22;;;;;;;16.15;12.45;;;;;;;11.70;100.00;99771.06;5028788;28;20056;-81
2023/09/22 01:01:47;;;;;;;19.15;13.50;;;;;;;11.66;100.00;99772.34;5029484;28;20389;-81
2023/09/22 01:04:13;;;;;;;19.50;13.43;;;;;;;11.63;100.00;99785.81;5030085;28;20029;-82
2023/09/22 01:06:39;;;;;;;17.25;13.50;;;;;;;11.63;100.00;99791.09;5044141;28;20034;-82
2023/09/22 01:09:09;;;;;;;21.02;13.35;;;;;;;11.59;100.00;99795.78;5029129;28;20026;-82
2023/09/22 01:11:34;;;;;;;20.83;13.95;;;;;;;11.61;100.00;99777.22;5030184;28;20122;-82
2023/09/22 01:14:01;;;;;;;19.45;13.35;;;;;;;11.56;100.00;99771.53;5030519;28;20052;-77
2023/09/22 01:16:27;;;;;;;18.50;13.23;;;;;;;11.56;100.00;99771.53;5032340;28;20037;-77
2023/09/22 01:49:09;;;;;;;22.30;14.85;;;;;;;11.50;100.00;99769.50;5027989;28;20477;-78
2023/09/22 01:51:38;;;;;;;25.83;15.18;;;;;;;11.55;100.00;99770.72;5030480;28;20044;-77
2023/09/22 01:54:04;;;;;;;20.35;14.25;;;;;;;11.59;100.00;99773.88;5030909;28;20034;-82
2023/09/22 01:56:30;;;;;;;20.92;15.20;;;;;;;11.54;100.00;99762.97;5032926;28;20025;-83
2023/09/22 01:58:55;;;;;;;21.13;14.77;;;;;;;11.58;100.00;99759.88;5030289;28;20124;-82
2023/09/22 02:01:22;;;;;;;20.52;14.88;;;;;;;11.57;100.00;99766.13;5030949;28;20041;-82
2023/09/22 02:03:47;;;;;;;20.17;15.13;;;;;;;11.55;100.00;99767.25;5033465;28;20056;-83
2023/09/22 02:06:12;;;;;;;20.92;15.20;;;;;;;11.56;100.00;99763.63;5033526;28;20041;-83
2023/09/22 02:08:38;;;;;;;24.30;15.35;;;;;;;11.60;100.00;99755.28;5028863;28;20034;-83
2023/09/22 02:11:03;;;;;;;23.08;15.05;;;;;;;11.62;100.00;99757.81;5031588;28;20033;-83
2023/09/22 02:13:29;;;;;;;21.33;14.88;;;;;;;11.58;100.00;99762.50;5031004;28;20897;-78
2023/09/22 02:15:54;;;;;;;21.25;14.95;;;;;;;11.57;100.00;99766.13;5031378;28;21532;-82
2023/09/22 02:18:20;;;;;;;19.98;14.85;;;;;;;11.61;100.00;99771.97;5028813;28;20048;-78
2023/09/22 02:20:46;;;;;;;23.08;15.85;;;;;;;11.62;100.00;99768.34;5031948;28;20493;-83
2023/09/22 02:23:11;;;;;;;22.80;15.02;;;;;;;11.59;100.00;99763.34;5031307;28;20477;-78
2023/09/22 02:25:40;;;;;;;22.17;14.68;;;;;;;11.60;100.00;99770.28;5025892;28;20056;-78
2023/09/22 02:28:05;;;;;;;26.40;15.40;;;;;;;11.58;100.00;99772.22;5040576;28;20076;-78
2023/09/22 02:30:31;;;;;;;20.95;14.77;;;;;;;11.60;100.00;99775.53;5021948;28;20060;-78
2023/09/22 02:32:57;;;;;;;24.75;15.60;;;;;;;11.59;100.00;99773.88;5031274;28;20039;-82
2023/09/22 02:35:22;;;;;;;22.70;15.40;;;;;;;11.64;100.00;99766.41;5032981;28;20032;-78
2023/09/22 02:37:49;;;;;;;25.13;15.43;;;;;;;11.62;100.00;99768.34;5028560;28;20033;-77
2023/09/22 02:40:15;;;;;;;23.35;16.10;;;;;;;11.60;100.00;99765.84;5031651;28;20041;-81
2023/09/22 02:42:43;;;;;;;22.48;15.05;;;;;;;11.62;100.00;99765.72;5031858;28;20036;-82
2023/09/22 02:45:10;;;;;;;20.58;14.85;;;;;;;11.63;100.00;99767.38;5011909;28;20029;-78
2023/09/22 02:47:37;;;;;;;24.70;15.68;;;;;;;11.65;100.00;99773.31;5020157;28;20486;-81
2023/09/22 02:50:04;;;;;;;21.63;15.18;;;;;;;11.63;100.00;99767.38;5031148;28;20035;-80
2023/09/22 02:52:30;;;;;;;22.42;15.25;;;;;;;11.61;100.00;99774.59;5031676;28;20084;-81
2023/09/22 02:54:59;;;;;;;24.08;15.43;;;;;;;11.64;100.00;99771.66;5031639;28;20028;-82
2023/09/22 02:57:25;;;;;;;20.60;14.95;;;;;;;11.64;100.00;99774.31;5030993;28;20053;-81
2023/09/22 02:59:53;;;;;;;19.02;14.35;;;;;;;11.63;100.00;99775.28;5023855;28;20053;-76
2023/09/22 03:02:19;;;;;;;23.17;14.88;;;;;;;11.63;100.00;99771.81;5045847;28;20494;-81
2023/09/22 03:04:44;;;;;;;22.85;15.20;;;;;;;11.59;100.00;99768.63;5031002;28;20037;-81
2023/09/22 03:07:10;;;;;;;21.65;14.73;;;;;;;11.61;100.00;99766.69;5032121;28;20500;-77
2023/09/22 03:09:36;;;;;;;25.45;14.75;;;;;;;11.59;100.00;99768.63;5032672;28;20026;-81
2023/09/22 03:12:02;;;;;;;21.08;13.40;;;;;;;11.61;100.00;99771.97;5031948;28;20393;-76
2023/09/22 03:14:27;;;;;;;24.90;14.00;;;;;;;11.60;100.00;99778.19;5033695;28;20028;-76
2023/09/22 03:16:53;;;;;;;22.23;14.35;;;;;;;11.60;100.00;99780.81;5020355;28;20477;-76
2023/09/22 03:19:19;;;;;;;17.00;12.93;;;;;;;11.59;100.00;99774.72;5032420;28;20100;-81
2023/09/22 03:21:47;;;;;;;19.55;13.48;;;;;;;11.58;100.00;99782.75;5031890;28;20100;-81
2023/09/22 03:24:13;;;;;;;20.40;13.55;;;;;;;11.59;100.00;99769.44;5020196;28;20030;-80
2023/09/22 03:26:38;;;;;;;21.75;12.88;;;;;;;11.59;100.00;99771.25;5012275;28;20041;-80
2023/09/22 03:29:04;;;;;;;19.92;13.05;;;;;;;11.63;100.00;99779.72;5019531;28;20021;-75
2023/09/22 03:31:29;;;;;;;20.58;12.80;;;;;;;11.63;100.00;99775.28;5029200;28;20386;-76
2023/09/22 03:33:55;;;;;;;19.38;12.38;;;;;;;11.64;100.00;99776.94;5029439;28;20378;-76
2023/09/22 03:36:20;;;;;;;21.95;11.88;;;;;;;11.63;100.00;99780.56;5030780;28;20021;-77
2023/09/22 03:38:48;;;;;;;21.75;11.85;;;;;;;11.66;100.00;99779.44;5031175;28;20064;-81
2023/09/22 03:41:16;;;;;;;18.77;12.02;;;;;;;11.65;100.00;99785.66;5029047;28;20064;-82
2023/09/22 03:43:43;;;;;;;18.35;11.05;;;;;;;11.67;100.00;99786.34;5031297;28;20029;-77
2023/09/22 03:46:10;;;;;;;14.32;10.98;;;;;;;11.72;100.00;99784.94;5023066;28;20025;-77
2023/09/22 03:48:37;;;;;;;17.40;11.02;;;;;;;11.68;100.00;99778.31;5015481;28;20045;-83
2023/09/22 03:51:02;;;;;;;16.88;10.63;;;;;;;11.70;100.00;99784.25;5030713;28;20386;-81
2023/09/22 03:53:27;;;;;;;15.68;9.55;;;;;;;11.70;100.00;99781.63;5030561;28;20025;-76
2023/09/22 03:55:53;;;;;;;13.20;9.63;;;;;;;11.71;100.00;99788.53;5030671;28;20032;-81
2023/09/22 03:58:19;;;;;;;13.95;9.07;;;;;;;11.69;100.00;99787.88;5031252;28;20040;-81
2023/09/22 04:00:48;;;;;;;14.73;8.85;;;;;;;11.71;100.00;99793.81;5030483;28;20025;-82
2023/09/22 04:03:15;;;;;;;13.57;8.73;;;;;;;11.70;100.00;99786.88;5028537;28;20025;-77
2023/09/22 04:05:40;;;;;;;14.93;8.10;;;;;;;11.72;100.00;99790.19;5028937;28;20164;-77
2023/09/22 04:08:06;;;;;;;11.20;7.93;;;;;;;11.75;100.00;99787.28;5028865;28;20541;-78
2023/09/22 04:10:35;;;;;;;13.23;7.40;;;;;;;11.76;100.00;99786.28;5029686;28;20033;-77
2023/09/22 04:13:00;;;;;;;12.85;7.35;;;;;;;11.76;100.00;99786.28;5030707;28;20025;-81
2023/09/22 04:15:26;;;;;;;11.98;7.20;;;;;;;11.79;100.00;99793.94;5030636;28;20018;-76
2023/09/22 04:17:52;;;;;;;11.23;6.45;;;;;;;11.79;100.00;99791.31;5029639;28;20025;-81
2023/09/22 04:20:28;;;;;;;11.45;6.65;;;;;;;11.77;100.00;99793.22;5032410;28;20021;-81
2023/09/22 04:22:55;;;;;;;12.35;6.35;;;;;;;11.79;100.00;99798.38;5029960;28;20017;-81
2023/09/22 04:25:29;;;;;;;8.75;5.88;;;;;;;11.79;100.00;99799.22;5031443;28;20033;-82
2023/09/22 04:28:07;;;;;;;10.57;6.15;;;;;;;11.77;100.00;99803.75;5029817;28;20025;-77
2023/09/22 04:30:36;;;;;;;8.45;5.88;;;;;;;11.74;100.00;99803.22;5030105;28;20421;-82
2023/09/22 04:33:02;;;;;;;11.07;5.88;;;;;;;11.73;100.00;99799.78;5029342;28;20021;-77
2023/09/22 04:35:28;;;;;;;9.60;5.20;;;;;;;11.71;100.00;99798.25;5028902;28;20497;-81
2023/09/22 04:37:54;;;;;;;8.70;5.97;;;;;;;11.69;100.00;99803.66;5029234;28;20030;-81
2023/09/22 04:40:24;;;;;;;8.75;5.25;;;;;;;11.69;100.00;99798.41;5046489;28;20033;-77
2023/09/22 04:42:53;;;;;;;7.95;5.40;;;;;;;11.69;100.00;99806.31;5029567;28;20504;-81
2023/09/22 04:45:19;;;;;;;10.23;5.40;;;;;;;11.68;100.00;99799.38;5029886;28;20501;-76
2023/09/22 04:47:47;;;;;;;8.10;5.50;;;;;;;11.63;100.00;99804.25;5030998;28;20046;-81
2023/09/22 04:50:17;;;;;;;12.73;5.53;;;;;;;11.65;100.00;99810.22;5021648;28;20041;-76
2023/09/22 04:52:43;;;;;;;7.85;5.30;;;;;;;11.61;100.00;99814.13;5011838;28;20482;-81
2023/09/22 04:55:12;;;;;;;7.35;5.22;;;;;;;11.59;100.00;99805.50;5021177;28;20057;-76
2023/09/22 04:57:38;;;;;;;9.10;5.10;;;;;;;11.59;100.00;99802.88;5029892;28;20053;-80
2023/09/22 05:00:08;;;;;;;9.00;5.00;;;;;;;11.60;100.00;99809.78;5030292;28;20025;-81
2023/09/22 05:02:34;;;;;;;9.30;5.03;;;;;;;11.57;100.00;99800.38;5031234;28;20029;-80
2023/09/22 05:05:01;;;;;;;11.90;5.05;;;;;;;11.57;100.00;99807.44;5029347;28;20377;-82
2023/09/22 05:07:28;;;;;;;10.75;4.82;;;;;;;11.54;100.00;99813.84;5016603;28;20109;-81
2023/09/22 05:09:53;;;;;;;8.18;5.13;;;;;;;11.52;100.00;99810.53;5028781;28;20025;-80
2023/09/22 05:12:19;;;;;;;7.75;4.95;;;;;;;11.52;100.00;99815.78;5029944;28;20044;-76
2023/09/22 05:14:47;;;;;;;8.65;5.00;;;;;;;11.52;100.00;99817.59;5029552;28;20045;-76
2023/09/22 05:17:13;;;;;;;13.65;5.63;;;;;;;11.54;100.00;99826.19;5030764;28;20104;-82
2023/09/22 05:19:39;;;;;;;10.48;4.95;;;;;;;11.54;100.00;99824.38;5030555;28;20040;-81
2023/09/22 05:22:04;;;;;;;8.30;4.95;;;;;;;11.52;100.00;99826.31;5027596;28;20477;-82
2023/09/22 05:24:31;;;;;;;10.40;4.70;;;;;;;11.50;100.00;99838.00;5027817;28;20033;-76
2023/09/22 05:26:56;;;;;;;10.43;4.80;;;;;;;11.50;100.00;99832.72;5029076;28;20034;-81
2023/09/22 05:29:21;;;;;;;7.25;4.88;;;;;;;11.51;100.00;99839.66;5020948;28;20052;-76
2023/09/22 05:31:47;;;;;;;10.70;4.80;;;;;;;11.48;100.00;99845.19;5009374;28;20690;-81
2023/09/22 05:34:14;;;;;;;9.35;4.57;;;;;;;11.48;100.00;99840.75;5011919;28;20030;-81
2023/09/22 05:36:42;;;;;;;8.68;5.13;;;;;;;11.48;100.00;99845.19;5013248;28;20024;-81
2023/09/22 05:39:10;;;;;;;10.93;5.13;;;;;;;11.53;100.00;99850.88;5029689;28;20045;-81
2023/09/22 05:41:36;;;;;;;8.00;5.13;;;;;;;11.50;100.00;99859.88;5029835;28;20560;-76
2023/09/22 05:44:04;;;;;;;10.23;5.18;;;;;;;11.49;100.00;99857.41;5027598;28;20145;-82
2023/09/22 05:46:31;;;;;;;9.38;5.38;;;;;;;11.50;100.00;99865.16;5029232;28;20030;-82
2023/09/22 05:48:57;;;;;;;11.00;5.30;;;;;;;11.49;100.00;99867.94;5029909;28;20037;-76
2023/09/22 05:51:24;;;;;;;8.07;5.38;;;;;;;11.47;100.00;99854.91;5030429;28;20020;-81
2023/09/22 05:53:51;;;;;;;8.45;5.22;;;;;;;11.49;100.00;99855.59;5026595;28;20040;-76
2023/09/22 05:56:16;;;;;;;8.60;5.05;;;;;;;11.48;100.00;99856.56;5025668;28;20029;-81
2023/09/22 05:58:42;;;;;;;6.97;5.30;;;;;;;11.49;100.00;99857.41;5032969;28;20029;-80
2023/09/22 06:01:09;;;;;;;11.38;5.13;;;;;;;11.50;100.00;99869.59;5032403;28;20029;-76
2023/09/22 06:03:37;;;;;;;10.48;5.55;;;;;;;11.51;100.00;99877.34;5032342;28;20029;-76
2023/09/22 06:06:11;;;;;;;8.90;5.00;;;;;;;11.53;100.00;99883.31;5032999;28;20033;-78
2023/09/22 06:08:37;;;;;;;8.95;5.03;;;;;;;11.53;100.00;99878.03;5033324;28;20036;-80
2023/09/22 06:11:04;;;;;;;9.27;5.57;;;;;;;11.54;100.00;99890.25;5031874;28;20021;-77
2023/09/22 06:13:30;;;;;;;9.63;5.85;;;;;;;11.56;100.00;99884.81;5031019;28;20088;-80
2023/09/22 06:15:56;;;;;;;9.00;4.70;;;;;;;11.60;100.00;99892.28;5031933;28;20028;-77
2023/09/22 06:18:22;;;;;;;12.43;4.88;;;;;;;11.62;100.00;99884.28;5031738;28;20482;-76
2023/09/22 06:21:00;;;;;;;9.68;4.72;;;;;;;11.68;100.00;99888.97;5033606;28;20040;-80
2023/09/22 06:23:30;;;;;;;7.40;4.72;;;;;;;11.67;100.00;99891.75;5033068;28;20037;-81
2023/09/22 06:26:01;;;;;;;9.82;4.75;;;;;;;11.72;100.00;99895.59;5039982;28;20017;-77
2023/09/22 06:28:26;;;;;;;7.95;4.85;;;;;;;11.76;100.00;99896.16;5033866;28;20043;-76
2023/09/22 06:30:52;;;;;;;11.18;4.78;;;;;;;11.76;100.00;99902.25;5042710;28;20041;-81
2023/09/22 06:33:18;;;;;;;7.68;4.60;;;;;;;11.79;100.00;99902.00;5044310;28;20036;-80
2023/09/22 06:35:54;;;;;;;8.30;4.90;;;;;;;11.83;100.00;99902.53;5043249;28;20022;-78
2023/09/22 06:38:19;;;;;;;10.07;4.63;;;;;;;11.87;100.00;99910.00;5036358;28;20071;-77
2023/09/22 06:40:45;;;;;;;9.25;4.55;;;;;;;11.90;100.00;99896.53;5036414;28;20029;-78
2023/09/22 06:43:11;;;;;;;10.13;4.80;;;;;;;11.96;100.00;99903.03;5040697;28;20048;-81
2023/09/22 06:45:37;;;;;;;8.75;4.40;;;;;;;12.00;100.00;99914.09;5042019;28;20026;-80
2023/09/22 06:48:05;;;;;;;9.77;4.60;;;;;;;12.04;100.00;99911.06;5037228;28;20297;-77
2023/09/22 06:50:36;;;;;;;7.82;4.13;;;;;;;12.09;100.00;99919.34;5031289;28;20026;-76
2023/09/22 06:53:05;;;;;;;5.97;3.75;;;;;;;12.15;100.00;99920.56;5026979;28;20026;-77
2023/09/22 06:55:31;;;;;;;7.57;3.58;;;;;;;12.21;100.00;99917.34;5030969;28;20117;-77
2023/09/22 06:57:59;;;;;;;8.23;3.42;;;;;;;12.28;100.00;99923.69;5028642;28;20441;-81
2023/09/22 07:00:28;;;;;;;6.15;3.78;;;;;;;12.35;100.00;99921.28;5030933;28;20045;-77
2023/09/22 07:02:54;;;;;;;7.05;3.03;;;;;;;12.48;100.00;99933.19;5030819;28;20044;-77
2023/09/22 07:05:19;;;;;;;6.18;3.05;;;;;;;12.54;100.00;99918.56;5030323;28;20029;-81
2023/09/22 07:07:49;;;;;;;7.22;2.60;;;;;;;12.60;100.00;99938.22;5030735;28;20049;-77
2023/09/22 07:10:16;;;;;;;6.20;2.78;;;;;;;12.76;100.00;99935.75;5028723;28;20555;-77
2023/09/22 07:12:44;;;;;;;5.18;2.50;;;;;;;12.85;100.00;99934.88;5030961;28;20029;-77
2023/09/22 07:15:11;;;;;;;6.90;2.47;;;;;;;12.96;100.00;99939.94;5029427;28;20071;-77
2023/09/22 07:17:50;;;;;;;5.18;2.47;;;;;;;13.06;100.00;99934.56;5030162;28;20022;-78
2023/09/22 07:20:15;;;;;;;5.93;2.22;;;;;;;13.13;100.00;99940.88;5030009;28;20017;-76
2023/09/22 07:22:44;;;;;;;5.28;2.15;;;;;;;13.18;100.00;99941.28;5029769;28;20036;-76
2023/09/22 07:25:11;;;;;;;4.95;2.72;;;;;;;13.32;100.00;99942.59;5030463;28;20028;-76
2023/09/22 07:27:36;;;;;;;5.03;1.95;;;;;;;13.44;100.00;99938.69;5030481;28;20024;-76
2023/09/22 07:30:09;;;;;;;3.63;1.60;;;;;;;13.43;100.00;99948.44;5028371;28;20473;-80
2023/09/22 07:32:35;;;;;;;4.60;1.60;;;;;;;13.46;100.00;99948.13;5035991;28;20087;-76
2023/09/22 07:35:01;;;;;;;3.78;1.58;;;;;;;13.59;100.00;99957.47;5031216;28;20029;-81
2023/09/22 07:37:27;;;;;;;5.20;2.30;;;;;;;13.67;100.00;99966.31;5029616;28;20429;-84
2023/09/22 07:39:52;;;;;;;5.18;2.50;;;;;;;13.79;100.00;99970.34;5030277;28;20025;-79
2023/09/22 07:42:17;;;;;;;5.70;2.20;;;;;;;13.98;100.00;99968.44;5029818;28;20068;-79
2023/09/22 07:44:43;;;;;;;4.90;1.80;;;;;;;14.06;100.00;99971.16;5030374;28;20083;-77
2023/09/22 07:47:14;;;;;;;2.50;1.38;;;;;;;14.10;100.00;99973.34;5030303;28;20067;-78
2023/09/22 07:49:43;;;;;;;2.85;1.35;;;;;;;14.31;100.00;99969.44;5029928;28;20041;-77
2023/09/22 07:52:10;;;;;;;5.65;1.48;;;;;;;14.39;100.00;99978.25;5029219;28;20117;-78
2023/09/22 07:54:36;;;;;;;3.15;1.30;;;;;;;14.37;100.00;99979.41;5030823;28;20025;-79
2023/09/22 07:57:02;;;;;;;2.03;1.10;;;;;;;14.49;100.00;99983.47;5030826;28;20041;-77
2023/09/22 07:59:32;;;;;;;3.13;1.00;;;;;;;14.48;100.00;99991.56;5029203;28;20037;-78
2023/09/22 08:02:02;;;;;;;3.38;1.05;;;;;;;14.43;100.00;99993.88;5031022;28;20029;-79
2023/09/22 08:04:28;;;;;;;2.10;0.90;;;;;;;14.49;100.00;99998.53;5013513;28;20025;-77
2023/09/22 08:06:54;;;;;;;4.45;1.10;;;;;;;14.58;100.00;100000.22;5021936;28;20080;-80
2023/09/22 08:09:21;;;;;;;3.10;1.20;;;;;;;14.51;100.00;100001.84;5014928;28;20033;-77
2023/09/22 08:11:47;;;;;;;2.50;0.93;;;;;;;14.54;99.14;100006.81;5029891;28;20021;-78
2023/09/22 08:14:12;;;;;;;2.38;0.95;;;;;;;14.59;99.93;100004.50;5029771;28;20133;-75
2023/09/22 08:16:38;;;;;;;1.45;0.90;;;;;;;14.52;99.24;100014.09;5026127;28;20032;-81
2023/09/22 08:19:09;;;;;;;2.67;1.20;;;;;;;14.60;99.76;100011.47;5029998;28;20102;-77
2023/09/22 08:21:35;;;;;;;3.47;1.13;;;;;;;14.69;97.01;100015.78;5027593;28;20056;-81
2023/09/22 08:24:00;;;;;;;2.03;1.00;;;;;;;14.74;98.18;100008.19;5028780;28;20106;-80
2023/09/22 08:26:26;;;;;;;3.08;0.88;;;;;;;14.82;100.00;100000.28;5029134;28;20025;-81
2023/09/22 08:28:52;;;;;;;3.33;0.90;;;;;;;14.71;94.82;100013.81;5043217;28;20022;-80
2023/09/22 08:31:17;;;;;;;3.03;0.90;;;;;;;14.74;94.62;100008.19;5029579;28;20022;-82
2023/09/22 08:33:43;;;;;;;2.88;1.02;;;;;;;14.68;95.15;100014.13;5029423;28;20033;-81
2023/09/22 08:36:08;;;;;;;2.38;1.00;;;;;;;14.58;95.31;100021.38;5028280;28;20359;-81
2023/09/22 08:38:34;;;;;;;2.83;1.02;;;;;;;14.57;97.36;100014.44;5029175;28;20037;-80
2023/09/22 08:41:03;;;;;;;3.33;1.20;;;;;;;14.53;95.65;100021.88;5026786;28;20379;-77
2023/09/22 08:43:30;;;;;;;3.15;1.05;;;;;;;14.55;96.01;100019.06;5028337;28;20505;-81
2023/09/22 08:45:56;;;;;;;2.55;1.02;;;;;;;14.75;96.66;100020.44;5028729;28;20038;-81
2023/09/22 08:48:24;;;;;;;2.70;1.05;;;;;;;14.82;96.96;100021.47;5029458;28;20050;-78
2023/09/22 08:50:49;;;;;;;4.53;1.00;;;;;;;14.81;97.51;100013.66;5026734;28;20034;-81
2023/09/22 08:53:15;;;;;;;3.83;1.38;;;;;;;14.73;97.76;100019.78;5029964;28;20083;-81
2023/09/22 08:55:40;;;;;;;3.42;1.20;;;;;;;14.67;96.23;100031.00;5027641;28;20018;-81
2023/09/22 08:58:06;;;;;;;3.17;0.82;;;;;;;14.65;95.36;100025.03;5028761;28;20393;-76
2023/09/22 09:00:33;;;;;;;2.97;0.93;;;;;;;14.68;97.05;100022.06;5029330;28;20470;-76
2023/09/22 09:03:07;;;;;;;3.25;1.05;;;;;;;14.70;97.88;100031.53;5028209;28;20029;-80
2023/09/22 09:05:33;;;;;;;4.47;1.05;;;;;;;14.98;95.12;100026.00;5028943;28;20033;-79
2023/09/22 09:08:12;;;;;;;1.58;0.90;;;;;;;15.09;92.24;100030.16;5029454;28;20025;-79
2023/09/22 09:10:39;;;;;;;1.75;0.90;;;;;;;15.13;90.17;100034.13;5026794;28;20492;-80
2023/09/22 09:13:07;;;;;;;1.95;1.00;;;;;;;15.24;90.17;100033.84;5029850;28;20040;-77
2023/09/22 09:15:47;;;;;;;3.15;1.13;;;;;;;15.56;91.94;100033.84;5045137;28;20033;-77
2023/09/22 09:18:16;;;;;;;3.47;0.90;;;;;;;15.82;88.15;100035.53;5028690;28;20091;-80
2023/09/22 09:20:42;;;;;;;1.08;0.70;;;;;;;16.14;84.30;100035.50;5014224;28;20080;-80
2023/09/22 09:23:22;;;;;;;2.22;0.90;;;;;;;16.44;84.66;100036.59;5025885;28;20109;-81
2023/09/22 09:25:49;;;;;;;3.50;0.98;;;;;;;16.66;82.87;100029.72;5027266;28;20069;-79
2023/09/22 09:28:16;;;;;;;2.15;0.88;;;;;;;16.94;79.36;100039.88;5028177;28;20108;-81
2023/09/22 09:30:52;;;;;;;3.90;0.80;;;;;;;17.06;79.89;100030.50;5027272;28;20029;-80
2023/09/22 09:33:22;;;;;;;3.10;1.00;;;;;;;17.29;78.31;100039.34;5030693;28;20033;-79
2023/09/22 09:35:48;;;;;;;1.95;0.73;;;;;;;17.53;75.65;100043.66;5031878;28;20454;-81
2023/09/22 09:38:14;;;;;;;2.60;0.80;;;;;;;18.02;76.54;100043.28;5031104;28;20079;-78
2023/09/22 09:40:39;;;;;;;1.92;0.80;;;;;;;18.72;72.92;100035.69;5031715;28;20026;-81
2023/09/22 09:43:10;;;;;;;3.22;0.90;;;;;;;20.02;66.55;100038.25;5031696;28;20057;-80
2023/09/22 09:45:41;;;;;;;2.55;0.85;;;;;;;21.12;58.84;100040.06;5030232;28;20083;-82
2023/09/22 09:48:10;;;;;;;2.33;0.93;;;;;;;21.90;55.82;100030.50;5031912;28;20053;-79
2023/09/22 09:50:39;;;;;;;2.55;0.85;;;;;;;22.40;53.68;100039.72;5032642;28;20021;-80
2023/09/22 09:53:18;;;;;;;3.25;0.73;;;;;;;22.76;54.40;100033.81;5031189;28;20513;-80
2023/09/22 09:55:43;;;;;;;3.67;0.90;;;;;;;23.53;50.88;100029.28;5032530;28;20076;-83
2023/09/22 09:58:12;;;;;;;1.83;0.65;;;;;;;24.12;47.90;100029.88;5030708;28;20068;-79
2023/09/22 10:00:39;;;;;;;2.60;1.00;;;;;;;23.99;47.33;100030.81;5032310;28;20025;-79
2023/09/22 10:03:08;;;;;;;2.45;0.70;;;;;;;24.29;46.56;100029.09;5045175;28;20037;-81
2023/09/22 10:05:33;;;;;;;1.48;0.60;;;;;;;24.15;45.65;100024.06;5023815;28;20059;-79
2023/09/22 10:07:59;;;;;;;6.10;0.88;;;;;;;23.66;45.97;100015.81;5032198;28;20060;-83
2023/09/22 10:10:27;;;;;;;2.08;1.00;;;;;;;23.41;48.03;100020.31;5029508;28;20029;-80
2023/09/22 10:12:52;;;;;;;3.38;0.88;;;;;;;23.86;46.26;100017.50;5030604;28;20017;-79
2023/09/22 10:15:49;;;;;;;1.80;0.68;;;;;;;24.20;50.36;100029.59;5031647;28;20041;-80
2023/09/22 10:18:17;;;;;;;2.03;0.80;;;;;;;22.81;47.42;100026.03;5029718;28;20037;-79
2023/09/22 10:20:46;;;;;;;1.55;0.70;;;;;;;21.49;50.78;100025.34;5027918;28;20028;-82
2023/09/22 10:23:30;;;;;;;2.35;0.75;;;;;;;20.94;57.47;100016.56;5032261;28;20127;-80
2023/09/22 10:26:04;;;;;;;2.92;0.88;;;;;;;20.31;57.53;100023.81;5028167;28;20078;-81
2023/09/22 10:28:30;;;;;;;2.08;0.90;;;;;;;19.95;58.32;100016.81;5030264;28;20033;-79
2023/09/22 10:30:58;;;;;;;2.17;0.98;;;;;;;19.63;58.28;100017.41;5029738;28;20507;-79
2023/09/22 10:33:24;;;;;;;1.77;0.90;;;;;;;19.63;61.11;100009.41;5029077;28;20371;-79
2023/09/22 10:35:49;;;;;;;1.80;0.70;;;;;;;19.45;60.50;100019.66;5030564;28;20021;-81
2023/09/22 10:38:16;;;;;;;2.60;0.80;;;;;;;19.16;61.16;100026.75;5031668;28;20032;-79
2023/09/22 10:41:03;;;;;;;2.88;0.90;;;;;;;19.04;64.34;100029.09;5026261;28;20511;-80
2023/09/22 10:43:30;;;;;;;2.30;0.93;;;;;;;18.75;62.16;100027.31;5027811;28;20116;-79
2023/09/22 10:45:56;;;;;;;1.27;0.75;;;;;;;18.57;63.92;100024.19;5029820;28;20052;-78
2023/09/22 10:48:22;;;;;;;2.97;0.82;;;;;;;18.23;65.43;100023.91;5030912;28;20041;-80
2023/09/22 10:50:52;;;;;;;2.47;0.90;;;;;;;17.89;66.19;100033.22;5031536;28;20405;-79
2023/09/22 10:53:17;;;;;;;1.85;0.90;;;;;;;17.70;68.74;100031.09;5032843;28;20236;-78
2023/09/22 10:55:45;;;;;;;3.53;0.82;;;;;;;17.64;70.04;100026.47;5036088;28;20032;-77
2023/09/22 10:58:18;;;;;;;2.40;1.17;;;;;;;17.45;70.10;100030.41;5028601;28;20080;-78
2023/09/22 11:00:59;;;;;;;2.58;0.90;;;;;;;17.27;70.58;100027.22;5030809;28;20017;-78
2023/09/22 11:03:25;;;;;;;2.83;0.93;;;;;;;17.26;69.87;100031.72;5030449;28;20366;-77
2023/09/22 11:06:06;;;;;;;3.03;0.90;;;;;;;17.35;72.31;100033.31;5040115;28;20561;-77
2023/09/22 11:08:33;;;;;;;2.00;0.68;;;;;;;17.54;71.40;100027.50;5018347;28;20029;-78
2023/09/22 11:10:59;;;;;;;1.92;0.90;;;;;;;17.43;69.29;100021.78;5030839;28;20021;-78
2023/09/22 11:13:25;;;;;;;3.70;0.82;;;;;;;17.46;70.07;100032.91;5025948;28;20049;-79
2023/09/22 11:15:54;;;;;;;4.07;1.15;;;;;;;17.48;70.78;100030.88;5028562;28;20023;-80
2023/09/22 11:18:28;;;;;;;2.28;0.90;;;;;;;17.44;69.76;100032.25;5029974;28;20072;-79
2023/09/22 11:21:11;;;;;;;8.00;1.00;;;;;;;17.69;69.68;100037.41;5030671;28;20437;-78
2023/09/22 11:23:38;;;;;;;2.45;1.00;;;;;;;17.82;67.42;100035.78;5029942;28;20154;-79
2023/09/22 11:26:12;;;;;;;2.88;1.00;;;;;;;18.23;69.48;100037.22;5030246;28;20162;-78
2023/09/22 11:28:48;;;;;;;2.45;1.00;;;;;;;18.46;67.64;100040.66;5030523;28;20028;-78
2023/09/22 11:31:19;;;;;;;1.95;0.80;;;;;;;18.30;65.09;100043.47;5029718;28;20398;-76
2023/09/22 11:33:45;;;;;;;3.63;0.98;;;;;;;18.17;64.43;100042.28;5032830;28;20107;-80
2023/09/22 11:36:12;;;;;;;4.05;0.98;;;;;;;18.11;65.42;100044.84;5019227;28;20018;-77
2023/09/22 11:38:40;;;;;;;2.28;0.80;;;;;;;18.02;63.92;100043.28;5029633;28;20230;-80
2023/09/22 11:41:10;;;;;;;3.30;1.15;;;;;;;17.99;63.62;100052.44;5030222;28;20030;-80
2023/09/22 11:43:40;;;;;;;2.72;0.88;;;;;;;18.11;64.76;100055.50;5029674;28;20022;-81
2023/09/22 11:46:22;;;;;;;2.33;0.80;;;;;;;18.19;64.79;100047.41;5029404;28;20118;-80
2023/09/22 11:48:56;;;;;;;2.10;0.90;;;;;;;18.46;64.70;100059.28;5030518;28;20053;-80
2023/09/22 11:51:22;;;;;;;4.20;1.25;;;;;;;18.64;63.53;100038.44;5028834;28;20512;-80